Weather Data

Pearl Creek Farm: 8878 N Farm Road 75, Walnut Grove MO 65770

<== Previous Day (Wednesday 02 Aug 2017) | Next Day (Friday 04 Aug 2017) ==>

Summary Precipitation Data For Thursday 03 August 2017

ElementValueUnits
Precipitation0"
Notes(none)
SourcePearl Creek Farm

Summary Temperature Data For Thursday 03 August 2017

ElementValueUnits
High Temperature87 oF
Low Temperature68 oF
Average Temperature75 oF
High Humidity93 %
Low Humidity46 %
Average Humidity77 %
SourceSpringfield-Branson National Airport (SGF)

Detail Temperature Data For Thursday 03 August 2017

Date / TimeTemp (F)RH (%)Dew Pt (F)Report Date / TimeSource
2017-08-03 15:52:00 76 77 68.0 2017-12-29 17:00:26.17417 Springfield-Branson National Airport (SGF)
2017-08-03 00:52:00 69 90 66.0 2017-12-29 17:00:26.17417 Springfield-Branson National Airport (SGF)
2017-08-03 01:52:00 69 90 66.0 2017-12-29 17:00:26.17417 Springfield-Branson National Airport (SGF)
2017-08-03 02:52:00 68 90 65.0 2017-12-29 17:00:26.17417 Springfield-Branson National Airport (SGF)
2017-08-03 03:52:00 68 93 66.0 2017-12-29 17:00:26.17417 Springfield-Branson National Airport (SGF)
2017-08-03 04:52:00 68 93 66.0 2017-12-29 17:00:26.17417 Springfield-Branson National Airport (SGF)
2017-08-03 05:52:00 71 90 68.0 2017-12-29 17:00:26.17417 Springfield-Branson National Airport (SGF)
2017-08-03 06:52:00 72 91 69.0 2017-12-29 17:00:26.17417 Springfield-Branson National Airport (SGF)
2017-08-03 07:52:00 76 79 69.0 2017-12-29 17:00:26.17417 Springfield-Branson National Airport (SGF)
2017-08-03 08:52:00 79 74 70.0 2017-12-29 17:00:26.17417 Springfield-Branson National Airport (SGF)
2017-08-03 09:52:00 82 65 69.0 2017-12-29 17:00:26.17417 Springfield-Branson National Airport (SGF)
2017-08-03 10:52:00 84 61 69.0 2017-12-29 17:00:26.17417 Springfield-Branson National Airport (SGF)
2017-08-03 11:52:00 86 53 67.0 2017-12-29 17:00:26.17417 Springfield-Branson National Airport (SGF)
2017-08-03 12:52:00 86 49 65.0 2017-12-29 17:00:26.17417 Springfield-Branson National Airport (SGF)
2017-08-03 13:52:00 87 46 64.0 2017-12-29 17:00:26.17417 Springfield-Branson National Airport (SGF)
2017-08-03 14:52:00 82 60 67.0 2017-12-29 17:00:26.17417 Springfield-Branson National Airport (SGF)
2017-08-03 16:52:00 74 74 65.0 2017-12-29 17:00:26.17417 Springfield-Branson National Airport (SGF)
2017-08-03 17:52:00 72 76 64.0 2017-12-29 17:00:26.17417 Springfield-Branson National Airport (SGF)
2017-08-03 18:52:00 71 81 65.0 2017-12-29 17:00:26.17417 Springfield-Branson National Airport (SGF)
2017-08-03 19:52:00 71 81 65.0 2017-12-29 17:00:26.17417 Springfield-Branson National Airport (SGF)
2017-08-03 20:52:00 69 87 65.0 2017-12-29 17:00:26.17417 Springfield-Branson National Airport (SGF)
2017-08-03 21:52:00 69 87 65.0 2017-12-29 17:00:26.17417 Springfield-Branson National Airport (SGF)
2017-08-03 22:52:00 70 82 64.0 2017-12-29 17:00:26.17417 Springfield-Branson National Airport (SGF)
2017-08-03 23:52:00 69 90 66.0 2017-12-29 17:00:26.17417 Springfield-Branson National Airport (SGF)

A total of 24 rows are displayed.